createdAt,value
2022-10-18T00:03:52.442Z,11.89
2022-10-18T00:08:58.334Z,11.78
2022-10-18T00:14:04.409Z,11.63
2022-10-18T00:19:10.306Z,11.53
2022-10-18T00:24:19.842Z,11.47
2022-10-18T00:29:25.734Z,11.44
2022-10-18T00:34:31.690Z,11.38
2022-10-18T00:39:37.542Z,11.36
2022-10-18T00:45:18.823Z,11.32
2022-10-18T00:50:26.651Z,11.31
2022-10-18T00:55:34.156Z,11.21
2022-10-18T01:00:40.819Z,11.12
2022-10-18T01:05:48.606Z,11.05
2022-10-18T01:11:06.649Z,11.06
2022-10-18T01:16:19.790Z,11.09
2022-10-18T01:21:41.603Z,11.09
2022-10-18T01:27:05.782Z,11.08
2022-10-18T01:32:15.643Z,11.12
2022-10-18T01:37:23.968Z,11.13
2022-10-18T01:42:30.840Z,11.07
2022-10-18T01:47:37.387Z,11.04
2022-10-18T01:52:51.188Z,11.03
2022-10-18T01:58:04.655Z,11.10
2022-10-18T02:03:19.070Z,11.17
2022-10-18T02:08:28.899Z,11.14
2022-10-18T02:13:43.502Z,11.14
2022-10-18T02:18:55.383Z,11.14
2022-10-18T02:24:03.788Z,11.07
2022-10-18T02:29:10.422Z,10.93
2022-10-18T02:34:20.596Z,10.85
2022-10-18T02:39:30.568Z,10.78
2022-10-18T02:44:38.446Z,10.72
2022-10-18T02:49:44.451Z,10.64
2022-10-18T02:54:50.334Z,10.56
2022-10-18T02:59:56.178Z,10.48
2022-10-18T03:05:02.027Z,10.57
2022-10-18T03:10:09.398Z,10.89
2022-10-18T03:15:15.183Z,11.24
2022-10-18T03:20:21.115Z,11.55
2022-10-18T03:25:26.893Z,11.75
2022-10-18T03:30:33.047Z,11.95
2022-10-18T03:35:39.075Z,12.16
2022-10-18T03:40:45.069Z,12.35
2022-10-18T03:45:51.270Z,12.46
2022-10-18T03:50:57.128Z,12.53
2022-10-18T03:56:03.017Z,12.65
2022-10-18T04:01:08.863Z,12.75
2022-10-18T04:06:14.651Z,12.78
2022-10-18T04:11:20.442Z,12.85
2022-10-18T04:16:26.449Z,13.01
2022-10-18T04:21:32.357Z,13.13
2022-10-18T04:26:38.303Z,13.11
2022-10-18T04:31:44.433Z,13.14
2022-10-18T04:36:50.183Z,13.21
2022-10-18T04:41:56.080Z,13.27
2022-10-18T04:47:01.775Z,13.29
2022-10-18T04:52:07.774Z,13.30
2022-10-18T04:57:13.680Z,13.34
2022-10-18T05:02:19.443Z,13.34
2022-10-18T05:07:25.361Z,13.31
2022-10-18T05:12:31.681Z,13.27
2022-10-18T05:17:37.938Z,13.28
2022-10-18T05:22:44.069Z,13.33
2022-10-18T05:27:49.950Z,13.39
2022-10-18T05:32:55.711Z,13.44
2022-10-18T05:38:04.223Z,13.49
2022-10-18T05:43:10.498Z,13.58
2022-10-18T05:48:16.554Z,13.71
2022-10-18T05:53:36.259Z,13.85
2022-10-18T05:58:43.797Z,14.01
2022-10-18T06:03:50.628Z,14.21
2022-10-18T06:08:56.586Z,14.46
2022-10-18T06:14:02.947Z,14.90
2022-10-18T06:19:08.878Z,15.87
2022-10-18T06:24:14.824Z,16.43
2022-10-18T06:29:20.775Z,16.64
2022-10-18T06:34:26.664Z,16.74
2022-10-18T06:39:32.847Z,16.80
2022-10-18T06:44:38.667Z,16.97
2022-10-18T06:49:44.612Z,17.06
2022-10-18T06:54:50.699Z,17.11
2022-10-18T06:59:56.711Z,17.14
2022-10-18T07:05:02.748Z,17.23
2022-10-18T07:10:12.922Z,17.33
2022-10-18T07:15:22.550Z,17.55
2022-10-18T07:20:28.505Z,17.82
2022-10-18T07:25:34.185Z,18.20
2022-10-18T07:30:40.023Z,18.75
2022-10-18T07:35:46.303Z,19.76
2022-10-18T07:40:58.663Z,20.44
2022-10-18T07:46:06.027Z,20.63
2022-10-18T07:51:12.225Z,20.78
2022-10-18T07:56:21.326Z,21.27
2022-10-18T08:01:27.902Z,21.91
2022-10-18T08:06:33.814Z,22.32
2022-10-18T08:11:40.271Z,22.44
2022-10-18T08:16:46.083Z,22.74
2022-10-18T08:21:51.843Z,22.69
2022-10-18T08:26:57.514Z,22.79
2022-10-18T08:32:03.447Z,23.52
2022-10-18T08:37:09.358Z,24.72
2022-10-18T08:42:50.118Z,26.01
2022-10-18T08:47:57.875Z,27.31
2022-10-18T08:53:14.197Z,28.08
2022-10-18T08:58:22.497Z,28.38
2022-10-18T09:03:44.356Z,28.82
2022-10-18T09:09:06.776Z,29.47
2022-10-18T09:14:31.031Z,29.98
2022-10-18T09:25:17.397Z,29.67
2022-10-18T09:30:35.730Z,28.90
2022-10-18T09:35:48.947Z,28.15
2022-10-18T09:40:58.969Z,27.60
2022-10-18T09:46:07.083Z,27.04
2022-10-18T09:51:21.534Z,27.19
2022-10-18T09:56:30.595Z,27.54
2022-10-18T10:01:36.404Z,27.84
2022-10-18T10:06:51.620Z,28.07
2022-10-18T10:11:58.349Z,27.37
2022-10-18T10:17:06.977Z,26.41
2022-10-18T10:22:14.640Z,25.94
2022-10-18T10:27:24.895Z,26.13
2022-10-18T10:32:47.755Z,26.24
2022-10-18T10:37:56.371Z,25.98
2022-10-18T10:43:25.061Z,25.72
2022-10-18T10:48:34.600Z,25.31
2022-10-18T10:53:50.649Z,24.77
2022-10-18T10:58:58.832Z,24.45
2022-10-18T11:04:25.591Z,24.40
2022-10-18T11:09:49.268Z,24.45
2022-10-18T11:15:02.857Z,24.59
2022-10-18T11:20:28.274Z,25.13
2022-10-18T11:25:48.405Z,25.06
2022-10-18T11:31:07.622Z,24.56
2022-10-18T11:36:18.496Z,24.11
2022-10-18T11:41:36.122Z,23.93
2022-10-18T11:46:54.604Z,23.86
2022-10-18T11:52:10.649Z,23.60
2022-10-18T11:57:36.190Z,23.59
2022-10-18T12:03:01.161Z,23.57
2022-10-18T12:08:11.699Z,23.36
2022-10-18T12:13:23.302Z,23.20
2022-10-18T12:18:30.646Z,22.87
2022-10-18T12:23:43.016Z,22.43
2022-10-18T12:28:57.395Z,22.07
2022-10-18T12:34:10.869Z,21.71
2022-10-18T12:39:32.277Z,21.47
2022-10-18T12:44:49.187Z,21.29
2022-10-18T12:50:04.060Z,21.18
2022-10-18T12:55:36.911Z,21.04
2022-10-18T13:01:03.461Z,20.88
2022-10-18T13:06:09.313Z,20.68
2022-10-18T13:11:36.302Z,20.57
2022-10-18T13:16:47.267Z,20.48
2022-10-18T13:22:04.147Z,20.41
2022-10-18T13:27:42.371Z,20.37
2022-10-18T13:32:57.406Z,20.27
2022-10-18T13:38:05.159Z,20.11
2022-10-18T13:43:41.406Z,19.90
2022-10-18T13:48:52.240Z,19.71
2022-10-18T13:54:04.400Z,19.58
2022-10-18T13:59:28.747Z,19.46
2022-10-18T14:04:52.172Z,19.33
2022-10-18T14:10:03.392Z,19.14
2022-10-18T14:15:17.168Z,18.90
2022-10-18T14:20:29.908Z,18.75
2022-10-18T14:25:37.628Z,18.63
2022-10-18T14:30:55.738Z,18.52
2022-10-18T14:36:06.209Z,18.40
2022-10-18T14:41:20.598Z,18.28
2022-10-18T14:46:29.179Z,18.09
2022-10-18T14:51:39.381Z,17.89
2022-10-18T14:56:46.214Z,17.70
2022-10-18T15:01:58.632Z,17.55
2022-10-18T15:07:06.189Z,17.32
2022-10-18T15:12:16.097Z,17.14
2022-10-18T15:17:25.348Z,16.95
2022-10-18T15:22:33.069Z,16.63
2022-10-18T15:32:52.481Z,16.31
2022-10-18T15:38:03.432Z,16.20
2022-10-18T15:43:28.420Z,16.11
2022-10-18T15:48:37.061Z,15.95
2022-10-18T15:53:53.444Z,15.81
2022-10-18T15:59:00.993Z,15.66
2022-10-18T16:04:16.197Z,15.51
2022-10-18T16:09:23.108Z,15.41
2022-10-18T16:14:30.158Z,15.31
2022-10-18T16:19:35.929Z,15.26
2022-10-18T16:24:41.669Z,15.17
2022-10-18T16:29:47.723Z,15.19
2022-10-18T16:34:53.348Z,15.20
2022-10-18T16:40:00.668Z,15.20
2022-10-18T16:45:07.872Z,15.22
2022-10-18T16:50:16.774Z,15.19
2022-10-18T16:55:24.945Z,15.19
2022-10-18T17:00:31.325Z,15.21
2022-10-18T17:05:37.062Z,15.18
2022-10-18T17:10:42.841Z,15.18
2022-10-18T17:15:50.222Z,15.15
2022-10-18T17:20:56.579Z,15.10
2022-10-18T17:26:26.642Z,15.05
2022-10-18T17:31:29.461Z,14.92
2022-10-18T17:36:35.338Z,14.72
2022-10-18T17:41:41.001Z,14.52
2022-10-18T17:46:46.862Z,14.36
2022-10-18T17:51:52.590Z,14.22
2022-10-18T17:56:58.216Z,14.11
2022-10-18T18:02:04.016Z,14.04
2022-10-18T18:07:09.779Z,13.97
2022-10-18T18:12:15.449Z,13.93
2022-10-18T18:17:28.715Z,13.86
2022-10-18T18:22:42.756Z,13.78
2022-10-18T18:27:49.015Z,13.74
2022-10-18T18:32:54.924Z,13.73
2022-10-18T18:38:00.956Z,13.72
2022-10-18T18:43:22.808Z,13.68
2022-10-18T18:48:31.487Z,13.62
2022-10-18T18:53:39.177Z,13.61
2022-10-18T18:58:45.855Z,13.64
2022-10-18T19:03:53.406Z,13.62
2022-10-18T19:09:03.055Z,13.60
2022-10-18T19:14:09.528Z,13.60
2022-10-18T19:19:17.133Z,13.61
2022-10-18T19:24:24.326Z,13.64
2022-10-18T19:29:31.488Z,13.65
2022-10-18T19:34:37.289Z,13.63
2022-10-18T19:39:43.232Z,13.61
2022-10-18T19:44:49.175Z,13.59
2022-10-18T19:49:55.514Z,13.55
2022-10-18T19:55:01.284Z,13.51
2022-10-18T20:00:11.319Z,13.50
2022-10-18T20:05:17.862Z,13.50
2022-10-18T20:10:23.693Z,13.52
2022-10-18T20:15:29.469Z,13.53
2022-10-18T20:20:37.474Z,13.52
2022-10-18T20:25:43.521Z,13.54
2022-10-18T20:30:49.349Z,13.55
2022-10-18T20:35:55.111Z,13.56
2022-10-18T20:41:06.450Z,13.53
2022-10-18T20:46:10.986Z,13.51
2022-10-18T20:51:17.562Z,13.47
2022-10-18T20:56:26.511Z,13.43
2022-10-18T21:01:34.076Z,13.46
2022-10-18T21:06:41.685Z,13.45
2022-10-18T21:11:49.734Z,13.45
2022-10-18T21:16:55.644Z,13.47
2022-10-18T21:22:01.640Z,13.52
2022-10-18T21:27:07.459Z,13.54
2022-10-18T21:32:13.155Z,13.53
2022-10-18T21:37:18.964Z,13.50
2022-10-18T21:42:24.834Z,13.51
2022-10-18T21:47:30.607Z,13.54
2022-10-18T21:52:36.419Z,13.55
2022-10-18T21:57:42.288Z,13.52
2022-10-18T22:02:48.172Z,13.51
2022-10-18T22:07:53.921Z,13.48
2022-10-18T22:13:00.255Z,13.49
2022-10-18T22:18:06.202Z,13.49
2022-10-18T22:23:12.942Z,13.47
2022-10-18T22:28:18.730Z,13.42
2022-10-18T22:33:24.640Z,13.40
2022-10-18T22:38:35.051Z,13.35
2022-10-18T22:43:41.045Z,13.26
2022-10-18T22:48:47.304Z,13.23
2022-10-18T22:53:53.321Z,13.23
2022-10-18T22:59:14.057Z,13.18
2022-10-18T23:04:19.853Z,13.12
2022-10-18T23:09:25.791Z,13.04
2022-10-18T23:14:31.662Z,12.95
2022-10-18T23:19:37.439Z,12.91
2022-10-18T23:24:44.602Z,12.88
2022-10-18T23:29:50.371Z,12.88
2022-10-18T23:34:56.047Z,12.91
2022-10-18T23:40:01.982Z,12.95
2022-10-18T23:45:10.000Z,13.00
2022-10-18T23:50:16.079Z,13.00
2022-10-18T23:55:21.901Z,12.89
